Time;durP1;ratioP1;P1;durP2;ratioP2;P2;SDS_P1;SDS_P2;PMS_P1;PMS_P2;Temp;Humidity;BMP_temperature;BMP_pressure;BME280_temperature;BME280_humidity;BME280_pressure;Samples;Min_cycle;Max_cycle;Signal;HPM_P1;HPM_P2
2023/08/07 04:06:28;;;;;;;;;7.00;5.67;;;;;;;;6287935;46;9999627;-49
2023/08/07 12:03:28;;;;;;;;;3.00;2.50;;;;;;;;6485770;39;9025;-61
2023/08/07 12:10:17;;;;;;;;;2.00;2.00;;;;;;;;6244212;39;52192;-60
2023/08/07 12:16:20;;;;;;;;;2.25;2.25;;;;;;;;6498703;38;8930;-60
2023/08/07 12:22:23;;;;;;;;;3.00;2.00;;;;;;;;6498982;38;8810;-60
2023/08/07 12:28:25;;;;;;;;;0.50;0.50;;;;;;;;6498789;38;8859;-59
2023/08/07 12:34:28;;;;;;;;;2.00;2.00;;;;;;;;6498461;38;8912;-60
2023/08/07 12:40:36;;;;;;;;;3.25;3.25;;;;;;;;6499684;31;8875;-59
2023/08/07 12:46:40;;;;;;;;;0.50;0.50;;;;;;;;6495720;38;8849;-58
2023/08/07 12:52:43;;;;;;;;;0.50;0.50;;;;;;;;6497851;38;8846;-59
2023/08/07 12:58:47;;;;;;;;;1.00;1.00;;;;;;;;6496073;46;8943;-60
2023/08/07 13:04:50;;;;;;;;;0.00;0.00;;;;;;;;5953814;46;10001673;-60
2023/08/07 13:10:53;;;;;;;;;0.50;0.50;;;;;;;;6494574;38;9023;-60
2023/08/07 13:16:56;;;;;;;;;0.25;0.25;;;;;;;;6495512;39;8926;-59
2023/08/07 13:22:59;;;;;;;;;0.75;0.75;;;;;;;;6489720;39;9522;-59
2023/08/07 13:29:02;;;;;;;;;0.75;0.75;;;;;;;;6487460;39;8942;-60
2023/08/07 13:35:06;;;;;;;;;2.75;2.75;;;;;;;;6489187;39;8836;-59
2023/08/07 13:41:11;;;;;;;;;1.50;1.50;;;;;;;;6488444;46;8980;-59
2023/08/07 13:47:17;;;;;;;;;0.50;0.50;;;;;;;;6488198;46;8853;-59
2023/08/07 13:53:23;;;;;;;;;1.00;1.00;;;;;;;;6488001;39;9487;-60
2023/08/07 13:59:26;;;;;;;;;1.75;1.75;;;;;;;;6487972;39;8901;-59
2023/08/07 14:05:28;;;;;;;;;0.75;0.75;;;;;;;;6485812;46;9063;-58
2023/08/07 14:11:31;;;;;;;;;0.25;0.25;;;;;;;;6490815;39;8838;-58
2023/08/07 14:17:33;;;;;;;;;0.50;0.50;;;;;;;;6491480;46;8921;-59
2023/08/07 14:23:35;;;;;;;;;0.00;0.00;;;;;;;;6491389;39;8845;-59
2023/08/07 14:29:38;;;;;;;;;1.00;1.00;;;;;;;;6490841;39;8924;-60
2023/08/07 14:35:41;;;;;;;;;0.00;0.00;;;;;;;;6492068;39;8837;-59
2023/08/07 14:41:44;;;;;;;;;1.00;0.25;;;;;;;;6492556;39;8872;-59
2023/08/07 14:47:46;;;;;;;;;0.00;0.00;;;;;;;;6491992;39;8897;-59
2023/08/07 14:53:49;;;;;;;;;0.00;0.00;;;;;;;;6492991;39;8836;-59
2023/08/07 14:59:51;;;;;;;;;0.00;0.00;;;;;;;;6491685;46;8913;-60
2023/08/07 15:05:56;;;;;;;;;0.75;0.75;;;;;;;;6490941;46;9062;-60
2023/08/07 15:12:00;;;;;;;;;0.75;0.75;;;;;;;;6490732;39;8865;-58
2023/08/07 15:18:05;;;;;;;;;0.75;0.75;;;;;;;;6488325;39;9011;-59
2023/08/07 15:24:07;;;;;;;;;1.00;1.00;;;;;;;;6489866;39;8901;-56
2023/08/07 15:30:10;;;;;;;;;0.00;0.00;;;;;;;;6489515;39;8978;-53
2023/08/07 15:36:12;;;;;;;;;0.75;0.75;;;;;;;;6488693;31;8935;-54
2023/08/07 15:42:14;;;;;;;;;0.75;0.75;;;;;;;;6490548;39;9035;-55
2023/08/07 15:48:17;;;;;;;;;0.75;0.75;;;;;;;;6488754;39;8936;-54
2023/08/07 15:54:19;;;;;;;;;0.75;0.75;;;;;;;;6488068;46;8863;-53
2023/08/07 16:00:24;;;;;;;;;2.00;0.00;;;;;;;;6489396;39;9103;-53
2023/08/07 16:06:26;;;;;;;;;2.50;2.50;;;;;;;;6489973;39;9622;-55
2023/08/07 16:12:29;;;;;;;;;0.25;0.25;;;;;;;;6490001;39;8845;-56
2023/08/07 16:18:33;;;;;;;;;1.50;1.50;;;;;;;;6489592;39;8876;-55
2023/08/07 16:24:35;;;;;;;;;1.00;1.00;;;;;;;;6489720;39;8896;-53
2023/08/07 16:30:38;;;;;;;;;0.50;0.50;;;;;;;;6489107;31;8991;-53
2023/08/07 16:36:41;;;;;;;;;0.50;0.50;;;;;;;;6489688;39;8821;-51
2023/08/07 16:42:43;;;;;;;;;1.00;1.00;;;;;;;;6490769;31;8867;-54
2023/08/07 16:48:46;;;;;;;;;0.75;0.75;;;;;;;;6488645;39;8903;-54
2023/08/07 16:54:53;;;;;;;;;1.75;1.75;;;;;;;;6490869;39;9519;-54
2023/08/07 17:00:55;;;;;;;;;1.00;1.00;;;;;;;;6491696;31;9424;-54
2023/08/07 17:07:02;;;;;;;;;1.00;1.00;;;;;;;;6489209;46;8939;-54
2023/08/07 17:13:05;;;;;;;;;1.00;1.00;;;;;;;;6490939;46;8845;-52
2023/08/07 17:19:07;;;;;;;;;4.00;2.25;;;;;;;;6490760;46;8883;-52
2023/08/07 17:25:10;;;;;;;;;1.25;1.25;;;;;;;;6490527;39;8849;-51
2023/08/07 17:31:12;;;;;;;;;2.75;2.75;;;;;;;;6491702;39;8979;-48
2023/08/07 17:37:15;;;;;;;;;3.00;3.00;;;;;;;;6491036;31;9002;-51
2023/08/07 17:43:17;;;;;;;;;2.00;2.00;;;;;;;;6490881;39;8991;-53
2023/08/07 17:49:20;;;;;;;;;3.75;2.75;;;;;;;;6490214;39;8893;-56
2023/08/07 17:55:23;;;;;;;;;3.50;3.50;;;;;;;;6490004;39;8875;-55
2023/08/07 18:01:29;;;;;;;;;4.00;4.00;;;;;;;;6489692;39;8869;-53
2023/08/07 18:07:31;;;;;;;;;0.00;0.00;;;;;;;;6491590;39;9103;-51
2023/08/07 18:13:35;;;;;;;;;2.00;2.00;;;;;;;;6489773;39;9551;-54
2023/08/07 18:19:39;;;;;;;;;1.00;1.00;;;;;;;;6488415;46;8966;-53
2023/08/07 18:25:41;;;;;;;;;1.25;1.25;;;;;;;;6489107;39;8899;-51
2023/08/07 18:31:43;;;;;;;;;3.00;2.00;;;;;;;;6489970;39;8892;-54
2023/08/07 18:37:47;;;;;;;;;4.00;3.00;;;;;;;;6488729;31;9589;-55
2023/08/07 18:43:49;;;;;;;;;3.00;3.00;;;;;;;;6488237;39;8919;-54
2023/08/07 18:49:51;;;;;;;;;4.25;3.00;;;;;;;;6488081;31;8897;-53
2023/08/07 18:55:56;;;;;;;;;2.25;2.25;;;;;;;;6489735;39;9646;-51
2023/08/07 19:01:58;;;;;;;;;1.50;1.50;;;;;;;;6489821;39;8872;-52
2023/08/07 19:08:01;;;;;;;;;4.00;3.00;;;;;;;;6488911;39;8994;-52
2023/08/07 19:14:03;;;;;;;;;2.25;2.00;;;;;;;;6489191;39;8873;-54
2023/08/07 19:20:06;;;;;;;;;2.25;2.25;;;;;;;;6489171;31;9492;-53
2023/08/07 19:26:09;;;;;;;;;2.00;2.00;;;;;;;;6489010;39;9788;-53
2023/08/07 19:32:11;;;;;;;;;1.50;1.50;;;;;;;;6488489;46;8906;-52
2023/08/07 19:38:15;;;;;;;;;3.00;2.00;;;;;;;;6488855;39;8888;-51
2023/08/07 19:44:17;;;;;;;;;2.00;2.00;;;;;;;;6489530;39;9500;-52
2023/08/07 19:50:20;;;;;;;;;4.00;4.00;;;;;;;;6488612;39;8912;-54
2023/08/07 19:56:22;;;;;;;;;3.00;1.75;;;;;;;;6488108;39;9009;-55
2023/08/07 20:02:24;;;;;;;;;2.00;2.00;;;;;;;;6487128;47;8910;-54
2023/08/07 20:08:27;;;;;;;;;3.25;2.50;;;;;;;;6488304;39;9712;-53
2023/08/07 20:14:29;;;;;;;;;2.25;2.25;;;;;;;;6487259;47;8858;-53
2023/08/07 20:20:32;;;;;;;;;3.00;3.00;;;;;;;;6487420;39;8918;-51
2023/08/07 20:26:36;;;;;;;;;2.00;2.00;;;;;;;;6487187;46;8901;-52
2023/08/07 20:32:38;;;;;;;;;3.50;2.50;;;;;;;;6489423;39;9492;-53
2023/08/07 20:38:43;;;;;;;;;2.25;2.25;;;;;;;;6490413;46;9071;-53
2023/08/07 20:44:45;;;;;;;;;3.25;2.25;;;;;;;;6489273;39;8878;-54
2023/08/07 20:50:48;;;;;;;;;3.00;2.00;;;;;;;;6490104;39;9561;-53
2023/08/07 20:56:50;;;;;;;;;2.00;2.00;;;;;;;;6489151;39;8961;-50
2023/08/07 21:02:53;;;;;;;;;2.00;2.00;;;;;;;;6490809;39;8946;-55
2023/08/07 21:08:57;;;;;;;;;3.00;3.00;;;;;;;;6490742;31;9049;-53
2023/08/07 21:15:03;;;;;;;;;3.00;3.00;;;;;;;;6488611;39;8902;-52
2023/08/07 21:21:06;;;;;;;;;2.50;2.50;;;;;;;;6490226;39;8838;-53
2023/08/07 21:27:08;;;;;;;;;2.00;2.00;;;;;;;;6490217;39;8910;-53
2023/08/07 21:33:11;;;;;;;;;3.00;3.00;;;;;;;;6490059;39;8950;-53
2023/08/07 21:39:13;;;;;;;;;3.00;3.00;;;;;;;;6488173;46;8878;-55
2023/08/07 21:45:16;;;;;;;;;6.00;2.50;;;;;;;;6489153;39;8914;-53
2023/08/07 21:51:18;;;;;;;;;3.50;3.00;;;;;;;;6490406;39;9554;-51
2023/08/07 21:57:23;;;;;;;;;5.00;4.00;;;;;;;;6489734;46;8957;-49
2023/08/07 22:03:26;;;;;;;;;3.25;3.25;;;;;;;;6488963;31;8881;-52
2023/08/07 22:09:29;;;;;;;;;4.50;4.50;;;;;;;;6489442;39;9476;-53
2023/08/07 22:15:31;;;;;;;;;4.00;3.75;;;;;;;;6490862;31;8941;-51
2023/08/07 22:21:34;;;;;;;;;3.67;2.67;;;;;;;;6490157;31;8890;-51
2023/08/07 22:27:37;;;;;;;;;3.75;3.50;;;;;;;;6487969;46;9109;-52
2023/08/07 22:33:39;;;;;;;;;3.25;3.00;;;;;;;;6489798;39;8890;-52
2023/08/07 22:39:42;;;;;;;;;2.00;2.00;;;;;;;;6489654;39;8981;-53
2023/08/07 22:45:49;;;;;;;;;2.50;2.50;;;;;;;;6489440;39;9481;-51
2023/08/07 22:51:51;;;;;;;;;2.25;2.25;;;;;;;;6489142;46;8839;-52
2023/08/07 22:57:56;;;;;;;;;4.00;4.00;;;;;;;;6489219;39;8984;-51
2023/08/07 23:03:58;;;;;;;;;2.50;2.50;;;;;;;;6487601;31;8878;-53
2023/08/07 23:10:01;;;;;;;;;6.00;6.00;;;;;;;;6489833;39;9017;-52
2023/08/07 23:16:04;;;;;;;;;2.00;2.00;;;;;;;;6489230;31;8904;-51
2023/08/07 23:22:06;;;;;;;;;2.25;2.00;;;;;;;;6487659;39;9011;-53
2023/08/07 23:28:08;;;;;;;;;4.25;4.25;;;;;;;;6489057;39;8918;-51
2023/08/07 23:34:11;;;;;;;;;3.50;3.50;;;;;;;;6488821;39;8846;-52
2023/08/07 23:40:17;;;;;;;;;5.75;3.00;;;;;;;;6488449;39;8847;-51
2023/08/07 23:46:19;;;;;;;;;4.00;3.00;;;;;;;;6488505;39;8957;-53
2023/08/07 23:52:21;;;;;;;;;6.25;4.50;;;;;;;;6487810;39;8902;-54
2023/08/07 23:58:23;;;;;;;;;6.00;6.00;;;;;;;;6488908;46;8878;-54
